sensor_id;sensor_type;location;lat;lon;timestamp;pressure;altitude;pressure_sealevel;temperature;humidity
62864;BME280;48954;59.950;11.014;2023-04-07T00:00:40;100714.05;;;0.29;80.65
62864;BME280;48954;59.950;11.014;2023-04-07T00:03:18;100716.44;;;0.29;80.79
62864;BME280;48954;59.950;11.014;2023-04-07T00:06:00;100716.91;;;0.28;80.35
62864;BME280;48954;59.950;11.014;2023-04-07T00:08:40;100719.03;;;0.26;80.54
62864;BME280;48954;59.950;11.014;2023-04-07T00:11:08;100717.20;;;0.26;80.73
62864;BME280;48954;59.950;11.014;2023-04-07T00:13:35;100714.92;;;0.26;80.53
62864;BME280;48954;59.950;11.014;2023-04-07T00:16:06;100719.69;;;0.24;80.70
62864;BME280;48954;59.950;11.014;2023-04-07T00:18:46;100717.52;;;0.24;80.85
62864;BME280;48954;59.950;11.014;2023-04-07T00:21:14;100722.73;;;0.24;80.71
62864;BME280;48954;59.950;11.014;2023-04-07T00:23:41;100719.89;;;0.21;80.72
62864;BME280;48954;59.950;11.014;2023-04-07T00:26:08;100720.84;;;0.17;80.84
62864;BME280;48954;59.950;11.014;2023-04-07T00:28:34;100728.36;;;0.15;80.87
62864;BME280;48954;59.950;11.014;2023-04-07T00:31:01;100725.11;;;0.13;81.01
62864;BME280;48954;59.950;11.014;2023-04-07T00:33:28;100730.52;;;0.13;80.99
62864;BME280;48954;59.950;11.014;2023-04-07T00:35:55;100732.14;;;0.14;81.04
62864;BME280;48954;59.950;11.014;2023-04-07T00:38:22;100734.52;;;0.14;81.17
62864;BME280;48954;59.950;11.014;2023-04-07T00:40:48;100731.98;;;0.13;81.08
62864;BME280;48954;59.950;11.014;2023-04-07T00:43:15;100731.77;;;0.14;81.13
62864;BME280;48954;59.950;11.014;2023-04-07T00:45:42;100732.85;;;0.15;81.03
62864;BME280;48954;59.950;11.014;2023-04-07T00:48:10;100738.31;;;0.15;81.04
62864;BME280;48954;59.950;11.014;2023-04-07T00:50:39;100738.16;;;0.13;81.07
62864;BME280;48954;59.950;11.014;2023-04-07T00:53:15;100738.33;;;0.11;81.11
62864;BME280;48954;59.950;11.014;2023-04-07T00:55:42;100737.02;;;0.13;81.18
62864;BME280;48954;59.950;11.014;2023-04-07T00:58:13;100736.16;;;0.12;81.05
62864;BME280;48954;59.950;11.014;2023-04-07T01:00:47;100734.85;;;0.13;81.01
62864;BME280;48954;59.950;11.014;2023-04-07T01:03:22;100739.45;;;0.12;81.12
62864;BME280;48954;59.950;11.014;2023-04-07T01:06:07;100743.02;;;0.11;81.10
62864;BME280;48954;59.950;11.014;2023-04-07T01:09:15;100746.36;;;0.08;81.15
62864;BME280;48954;59.950;11.014;2023-04-07T01:14:53;100752.57;;;0.05;81.59
62864;BME280;48954;59.950;11.014;2023-04-07T01:17:42;100748.67;;;0.05;81.22
62864;BME280;48954;59.950;11.014;2023-04-07T01:20:25;100748.46;;;0.05;81.26
62864;BME280;48954;59.950;11.014;2023-04-07T01:23:06;100751.02;;;0.07;81.25
62864;BME280;48954;59.950;11.014;2023-04-07T01:25:59;100750.80;;;0.06;81.35
62864;BME280;48954;59.950;11.014;2023-04-07T01:28:55;100756.04;;;0.06;81.64
62864;BME280;48954;59.950;11.014;2023-04-07T01:31:39;100758.48;;;0.07;81.50
62864;BME280;48954;59.950;11.014;2023-04-07T01:34:21;100757.02;;;0.08;81.43
62864;BME280;48954;59.950;11.014;2023-04-07T01:36:58;100755.68;;;0.09;81.28
62864;BME280;48954;59.950;11.014;2023-04-07T01:39:42;100760.77;;;0.10;81.56
62864;BME280;48954;59.950;11.014;2023-04-07T01:42:24;100757.30;;;0.10;81.35
62864;BME280;48954;59.950;11.014;2023-04-07T01:45:06;100758.82;;;0.10;81.50
62864;BME280;48954;59.950;11.014;2023-04-07T01:47:52;100762.35;;;0.11;81.41
62864;BME280;48954;59.950;11.014;2023-04-07T01:50:25;100762.89;;;0.11;81.51
62864;BME280;48954;59.950;11.014;2023-04-07T02:52:43;100821.80;;;-0.02;81.52
62864;BME280;48954;59.950;11.014;2023-04-07T11:07:54;101213.02;;;4.41;74.14
62864;BME280;48954;59.950;11.014;2023-04-07T11:33:29;101226.33;;;4.61;73.05
62864;BME280;48954;59.950;11.014;2023-04-07T11:59:36;101218.96;;;6.76;70.69
62864;BME280;48954;59.950;11.014;2023-04-07T12:08:01;101218.49;;;7.13;70.01
62864;BME280;48954;59.950;11.014;2023-04-07T12:10:37;101216.40;;;7.47;69.89
62864;BME280;48954;59.950;11.014;2023-04-07T12:13:03;101220.08;;;7.66;69.33
62864;BME280;48954;59.950;11.014;2023-04-07T12:22:25;101224.85;;;7.66;67.75
62864;BME280;48954;59.950;11.014;2023-04-07T12:24:53;101224.59;;;7.63;68.02
62864;BME280;48954;59.950;11.014;2023-04-07T12:27:19;101222.59;;;7.58;67.89
62864;BME280;48954;59.950;11.014;2023-04-07T12:30:05;101223.89;;;7.67;67.78
62864;BME280;48954;59.950;11.014;2023-04-07T12:32:46;101220.82;;;7.81;67.85
62864;BME280;48954;59.950;11.014;2023-04-07T12:35:27;101219.34;;;7.86;67.56
62864;BME280;48954;59.950;11.014;2023-04-07T12:38:11;101219.61;;;7.94;67.63
62864;BME280;48954;59.950;11.014;2023-04-07T12:43:26;101215.11;;;7.97;67.69
62864;BME280;48954;59.950;11.014;2023-04-07T12:46:06;101213.29;;;8.01;66.88
62864;BME280;48954;59.950;11.014;2023-04-07T12:48:48;101216.69;;;8.13;66.64
62864;BME280;48954;59.950;11.014;2023-04-07T12:57:51;101206.86;;;9.18;65.18
62864;BME280;48954;59.950;11.014;2023-04-07T13:10:42;101214.31;;;8.58;65.52
62864;BME280;48954;59.950;11.014;2023-04-07T16:15:27;101166.60;;;9.44;53.30
62864;BME280;48954;59.950;11.014;2023-04-07T16:18:47;101169.74;;;9.11;53.50
62864;BME280;48954;59.950;11.014;2023-04-07T16:24:39;101170.36;;;8.57;54.31
62864;BME280;48954;59.950;11.014;2023-04-07T16:27:21;101174.38;;;8.31;54.50
62864;BME280;48954;59.950;11.014;2023-04-07T16:29:48;101170.93;;;8.12;54.70
62864;BME280;48954;59.950;11.014;2023-04-07T16:32:17;101171.55;;;7.92;54.74
62864;BME280;48954;59.950;11.014;2023-04-07T16:34:53;101172.38;;;7.76;55.22
62864;BME280;48954;59.950;11.014;2023-04-07T16:37:35;101176.23;;;7.63;55.59
62864;BME280;48954;59.950;11.014;2023-04-07T16:40:15;101172.89;;;7.48;55.71
62864;BME280;48954;59.950;11.014;2023-04-07T16:43:01;101177.60;;;7.35;56.02
62864;BME280;48954;59.950;11.014;2023-04-07T16:45:37;101179.23;;;7.21;55.96
62864;BME280;48954;59.950;11.014;2023-04-07T16:48:19;101183.66;;;7.10;56.32
62864;BME280;48954;59.950;11.014;2023-04-07T16:51:00;101189.83;;;7.01;56.28
62864;BME280;48954;59.950;11.014;2023-04-07T16:54:06;101189.38;;;6.89;56.56
62864;BME280;48954;59.950;11.014;2023-04-07T16:56:48;101192.48;;;6.77;56.75
62864;BME280;48954;59.950;11.014;2023-04-07T16:59:32;101192.98;;;6.66;57.06
62864;BME280;48954;59.950;11.014;2023-04-07T17:02:13;101194.09;;;6.56;57.38
62864;BME280;48954;59.950;11.014;2023-04-07T17:05:00;101200.52;;;6.47;57.78
62864;BME280;48954;59.950;11.014;2023-04-07T17:07:42;101199.27;;;6.39;57.86
62864;BME280;48954;59.950;11.014;2023-04-07T17:10:24;101202.01;;;6.31;58.25
62864;BME280;48954;59.950;11.014;2023-04-07T17:13:27;101204.15;;;6.26;58.52
62864;BME280;48954;59.950;11.014;2023-04-07T17:16:25;101209.45;;;6.18;58.59
62864;BME280;48954;59.950;11.014;2023-04-07T17:19:06;101207.77;;;6.09;58.79
62864;BME280;48954;59.950;11.014;2023-04-07T17:21:46;101207.64;;;6.03;59.22
62864;BME280;48954;59.950;11.014;2023-04-07T17:24:30;101210.63;;;5.96;59.33
62864;BME280;48954;59.950;11.014;2023-04-07T17:27:18;101214.88;;;5.88;59.63
62864;BME280;48954;59.950;11.014;2023-04-07T17:30:22;101220.14;;;5.81;59.96
62864;BME280;48954;59.950;11.014;2023-04-07T17:33:04;101221.80;;;5.72;60.23
62864;BME280;48954;59.950;11.014;2023-04-07T17:35:52;101223.98;;;5.64;60.51
62864;BME280;48954;59.950;11.014;2023-04-07T17:38:32;101227.96;;;5.56;60.51
62864;BME280;48954;59.950;11.014;2023-04-07T17:41:01;101228.91;;;5.48;60.52
62864;BME280;48954;59.950;11.014;2023-04-07T17:43:33;101229.72;;;5.39;60.87
62864;BME280;48954;59.950;11.014;2023-04-07T17:46:02;101231.44;;;5.32;60.81
62864;BME280;48954;59.950;11.014;2023-04-07T17:48:35;101233.26;;;5.23;61.25
62864;BME280;48954;59.950;11.014;2023-04-07T17:51:31;101236.67;;;5.15;61.39
62864;BME280;48954;59.950;11.014;2023-04-07T17:59:55;101246.62;;;4.87;62.02
62864;BME280;48954;59.950;11.014;2023-04-07T18:03:00;101251.06;;;4.78;62.26
62864;BME280;48954;59.950;11.014;2023-04-07T18:06:01;101256.59;;;4.66;62.50
62864;BME280;48954;59.950;11.014;2023-04-07T18:22:25;101263.35;;;3.95;62.98
62864;BME280;48954;59.950;11.014;2023-04-07T18:25:19;101267.55;;;3.79;63.17
62864;BME280;48954;59.950;11.014;2023-04-07T18:28:07;101272.70;;;3.65;63.58
62864;BME280;48954;59.950;11.014;2023-04-07T18:34:24;101279.73;;;3.39;64.21
62864;BME280;48954;59.950;11.014;2023-04-07T18:39:41;101288.23;;;3.18;64.73
62864;BME280;48954;59.950;11.014;2023-04-07T18:42:21;101293.08;;;3.08;64.92
62864;BME280;48954;59.950;11.014;2023-04-07T18:45:02;101298.35;;;2.98;65.01
62864;BME280;48954;59.950;11.014;2023-04-07T18:50:09;101301.39;;;2.80;65.38
62864;BME280;48954;59.950;11.014;2023-04-07T18:53:07;101308.15;;;2.73;65.77
62864;BME280;48954;59.950;11.014;2023-04-07T18:55:33;101313.09;;;2.66;66.26
62864;BME280;48954;59.950;11.014;2023-04-07T18:57:59;101312.48;;;2.57;66.06
62864;BME280;48954;59.950;11.014;2023-04-07T19:00:43;101315.98;;;2.49;66.29
62864;BME280;48954;59.950;11.014;2023-04-07T19:05:58;101318.23;;;2.33;66.68
62864;BME280;48954;59.950;11.014;2023-04-07T19:08:52;101321.98;;;2.25;66.90
62864;BME280;48954;59.950;11.014;2023-04-07T19:11:18;101325.70;;;2.16;67.02
62864;BME280;48954;59.950;11.014;2023-04-07T19:13:49;101330.23;;;2.08;67.23
62864;BME280;48954;59.950;11.014;2023-04-07T20:10:18;101356.86;;;0.48;70.56
62864;BME280;48954;59.950;11.014;2023-04-07T20:13:22;101354.55;;;0.40;70.43
62864;BME280;48954;59.950;11.014;2023-04-07T20:16:24;101356.32;;;0.33;70.80
62864;BME280;48954;59.950;11.014;2023-04-07T20:19:07;101358.82;;;0.26;70.88
62864;BME280;48954;59.950;11.014;2023-04-07T20:21:48;101362.45;;;0.22;70.90
62864;BME280;48954;59.950;11.014;2023-04-07T20:24:21;101358.08;;;0.15;70.97
62864;BME280;48954;59.950;11.014;2023-04-07T20:39:03;101362.92;;;-0.16;71.39
62864;BME280;48954;59.950;11.014;2023-04-07T20:42:35;101361.36;;;-0.22;71.50
62864;BME280;48954;59.950;11.014;2023-04-07T22:46:06;101405.15;;;-1.67;75.18
62864;BME280;48954;59.950;11.014;2023-04-07T22:48:38;101405.08;;;-1.69;74.94
62864;BME280;48954;59.950;11.014;2023-04-07T22:51:05;101410.66;;;-1.70;75.20
62864;BME280;48954;59.950;11.014;2023-04-07T22:53:38;101411.46;;;-1.71;75.08
62864;BME280;48954;59.950;11.014;2023-04-07T22:56:15;101411.48;;;-1.72;75.22
62864;BME280;48954;59.950;11.014;2023-04-07T22:59:38;101413.60;;;-1.72;75.47
62864;BME280;48954;59.950;11.014;2023-04-07T23:03:01;101413.73;;;-1.73;75.41
62864;BME280;48954;59.950;11.014;2023-04-07T23:06:05;101418.83;;;-1.74;75.56
62864;BME280;48954;59.950;11.014;2023-04-07T23:09:20;101415.59;;;-1.77;75.47
62864;BME280;48954;59.950;11.014;2023-04-07T23:12:17;101420.35;;;-1.79;75.69
62864;BME280;48954;59.950;11.014;2023-04-07T23:15:39;101423.06;;;-1.80;75.70
62864;BME280;48954;59.950;11.014;2023-04-07T23:18:41;101421.09;;;-1.82;75.79
62864;BME280;48954;59.950;11.014;2023-04-07T23:22:03;101419.48;;;-1.84;75.93
